Time,TemperatureF,DewpointF,PressureIn,WindDirection,WindDirectionDegrees,WindSpeedMPH,WindSpeedGustMPH,Humidity,HourlyPrecipIn,Conditions,Clouds,dailyrainin,SoftwareType,DateUTC
2013-02-13 00:00:00,41.2,35.2,30.32,North,354,0.0,0.0,79,0.00,BKN,,0.00,WeatherDisplay:10.37,2013-02-13 08:00:00,
2013-02-13 00:05:00,41.1,34.8,30.32,North,354,0.0,0.0,78,0.00,OVC,,0.00,WeatherDisplay:10.37,2013-02-13 08:05:00,
2013-02-13 00:10:00,41.0,35.0,30.32,North,354,0.0,0.0,79,0.00,OVC,,0.00,WeatherDisplay:10.37,2013-02-13 08:10:00,
2013-02-13 00:20:00,40.8,34.8,30.32,North,354,0.0,4.0,79,0.00,OVC,,0.00,WeatherDisplay:10.37,2013-02-13 08:20:00,
2013-02-13 00:30:00,40.7,34.7,30.32,North,354,0.0,3.0,79,0.00,OVC,,0.00,WeatherDisplay:10.37,2013-02-13 08:30:00,
2013-02-13 00:40:00,40.6,34.9,30.32,North,353,0.0,5.0,80,0.00,OVC,,0.00,WeatherDisplay:10.37,2013-02-13 08:40:00,
2013-02-13 00:50:00,40.5,34.8,30.32,North,350,0.0,0.0,80,0.00,OVC,,0.00,WeatherDisplay:10.37,2013-02-13 08:50:00,
2013-02-13 01:00:00,40.3,34.6,30.32,NNW,348,0.0,6.0,80,0.00,OVC,,0.00,WeatherDisplay:10.37,2013-02-13 09:00:00,
2013-02-13 01:05:00,40.3,34.6,30.32,NNW,346,0.0,4.0,80,0.00,OVC,,0.00,WeatherDisplay:10.37,2013-02-13 09:05:00,
2013-02-13 01:10:00,40.2,34.5,30.31,NNW,345,0.0,2.0,80,0.00,OVC,,0.00,WeatherDisplay:10.37,2013-02-13 09:10:00,
2013-02-13 01:20:00,40.2,34.9,30.31,NNW,345,0.0,0.0,81,0.00,OVC,,0.00,WeatherDisplay:10.37,2013-02-13 09:20:00,
2013-02-13 01:30:00,40.2,34.8,30.31,NNW,345,0.0,0.0,81,0.00,OVC,,0.00,WeatherDisplay:10.37,2013-02-13 09:30:00,
2013-02-13 01:40:00,40.2,34.8,30.31,NNW,345,1.0,4.0,81,0.00,OVC,,0.00,WeatherDisplay:10.37,2013-02-13 09:40:00,
2013-02-13 01:50:00,40.3,34.9,30.31,NNW,345,1.0,4.0,81,0.00,OVC,,0.00,WeatherDisplay:10.37,2013-02-13 09:50:00,
2013-02-13 02:00:00,40.4,35.0,30.31,NNW,346,1.0,6.0,81,0.00,OVC,,0.00,WeatherDisplay:10.37,2013-02-13 10:00:00,
2013-02-13 02:05:00,40.3,35.0,30.31,NNW,347,1.0,7.0,81,0.00,OVC,,0.00,WeatherDisplay:10.37,2013-02-13 10:05:00,
2013-02-13 02:10:00,40.3,34.9,30.30,NNW,346,1.0,6.0,81,0.00,OVC,,0.00,WeatherDisplay:10.37,2013-02-13 10:10:00,
2013-02-13 02:20:00,40.3,34.6,30.31,NNW,346,1.0,6.0,80,0.00,OVC,,0.00,WeatherDisplay:10.37,2013-02-13 10:20:00,
2013-02-13 02:30:00,40.2,34.8,30.30,North,354,0.0,5.0,81,0.00,OVC,,0.00,WeatherDisplay:10.37,2013-02-13 10:30:00,
2013-02-13 02:40:00,40.2,34.5,30.30,North,353,2.0,5.0,80,0.00,OVC,,0.00,WeatherDisplay:10.37,2013-02-13 10:40:00,
2013-02-13 02:50:00,40.1,34.7,30.30,North,354,0.0,6.0,81,0.00,OVC,,0.00,WeatherDisplay:10.37,2013-02-13 10:50:00,
2013-02-13 03:00:00,40.0,34.3,30.30,North,357,0.0,0.0,80,0.00,OVC,,0.00,WeatherDisplay:10.37,2013-02-13 11:00:00,
2013-02-13 03:05:00,39.9,34.2,30.30,North,357,0.0,0.0,80,0.00,SCT,,0.00,WeatherDisplay:10.37,2013-02-13 11:05:00,
2013-02-13 03:10:00,39.8,34.1,30.30,North,357,0.0,0.0,80,0.00,SCT,,0.00,WeatherDisplay:10.37,2013-02-13 11:10:00,
2013-02-13 03:20:00,39.6,33.9,30.30,North,357,0.0,3.0,80,0.00,SCT,,0.00,WeatherDisplay:10.37,2013-02-13 11:20:00,
2013-02-13 03:30:00,39.5,33.8,30.30,North,357,0.0,3.0,80,0.00,SCT,,0.00,WeatherDisplay:10.37,2013-02-13 11:30:00,
2013-02-13 03:40:00,39.4,34.1,30.30,North,358,0.0,3.0,81,0.00,SCT,,0.00,WeatherDisplay:10.37,2013-02-13 11:40:00,
2013-02-13 03:50:00,39.2,33.5,30.30,North,357,0.0,0.0,80,0.00,SCT,,0.00,WeatherDisplay:10.37,2013-02-13 11:50:00,
2013-02-13 04:00:00,39.0,33.4,30.30,North,357,0.0,4.0,80,0.00,SCT,,0.00,WeatherDisplay:10.37,2013-02-13 12:00:00,
2013-02-13 04:05:00,39.0,33.6,30.29,North,356,0.0,0.0,81,0.00,CLR,,0.00,WeatherDisplay:10.37,2013-02-13 12:05:00,
2013-02-13 04:10:00,38.9,33.6,30.30,North,356,0.0,4.0,81,0.00,CLR,,0.00,WeatherDisplay:10.37,2013-02-13 12:10:00,
2013-02-13 04:20:00,38.7,33.4,30.29,North,353,0.0,7.0,81,0.00,CLR,,0.00,WeatherDisplay:10.37,2013-02-13 12:20:00,
2013-02-13 04:30:00,38.6,33.3,30.30,North,350,0.0,0.0,81,0.00,CLR,,0.00,WeatherDisplay:10.37,2013-02-13 12:30:00,
2013-02-13 04:40:00,38.5,33.2,30.29,North,349,1.0,5.0,81,0.00,CLR,,0.00,WeatherDisplay:10.37,2013-02-13 12:40:00,
2013-02-13 04:50:00,38.4,33.3,30.30,NNW,347,1.0,4.0,82,0.00,CLR,,0.00,WeatherDisplay:10.37,2013-02-13 12:50:00,
2013-02-13 05:00:00,38.2,33.2,30.29,North,349,0.0,0.0,82,0.00,CLR,,0.00,WeatherDisplay:10.37,2013-02-13 13:00:00,
2013-02-13 05:05:00,38.2,33.2,30.30,North,349,0.0,0.0,82,0.00,CLR,,0.00,WeatherDisplay:10.37,2013-02-13 13:05:00,
2013-02-13 05:10:00,38.1,33.1,30.30,North,349,0.0,0.0,82,0.00,CLR,,0.00,WeatherDisplay:10.37,2013-02-13 13:10:00,
2013-02-13 05:20:00,38.1,33.1,30.30,North,349,0.0,4.0,82,0.00,CLR,,0.00,WeatherDisplay:10.37,2013-02-13 13:20:00,
2013-02-13 05:30:00,38.0,33.0,30.30,North,349,0.0,3.0,82,0.00,CLR,,0.00,WeatherDisplay:10.37,2013-02-13 13:30:00,
2013-02-13 05:40:00,37.9,32.9,30.29,North,349,0.0,0.0,82,0.00,CLR,,0.00,WeatherDisplay:10.37,2013-02-13 13:40:00,
2013-02-13 05:50:00,37.8,32.5,30.29,North,349,0.0,3.0,81,0.00,CLR,,0.00,WeatherDisplay:10.37,2013-02-13 13:50:00,
2013-02-13 06:00:00,37.7,32.7,30.29,North,349,0.0,0.0,82,0.00,CLR,,0.00,WeatherDisplay:10.37,2013-02-13 14:00:00,
2013-02-13 06:05:00,37.6,32.6,30.29,North,349,0.0,0.0,82,0.00,CLR,,0.00,WeatherDisplay:10.37,2013-02-13 14:05:00,
2013-02-13 06:10:00,37.6,32.6,30.29,North,349,0.0,0.0,82,0.00,CLR,,0.00,WeatherDisplay:10.37,2013-02-13 14:10:00,
2013-02-13 06:20:00,37.4,32.4,30.29,North,349,0.0,3.0,82,0.00,CLR,,0.00,WeatherDisplay:10.37,2013-02-13 14:20:00,
2013-02-13 06:30:00,37.2,32.2,30.30,North,349,0.0,3.0,82,0.00,CLR,,0.00,WeatherDisplay:10.37,2013-02-13 14:30:00,
2013-02-13 06:40:00,37.2,32.2,30.29,North,349,0.0,0.0,82,0.00,CLR,,0.00,WeatherDisplay:10.37,2013-02-13 14:40:00,
2013-02-13 06:50:00,37.1,32.1,30.30,North,349,0.0,1.0,82,0.00,CLR,,0.00,WeatherDisplay:10.37,2013-02-13 14:50:00,
2013-02-13 07:00:00,37.0,32.0,30.30,North,349,0.0,0.0,82,0.00,CLR,,0.00,WeatherDisplay:10.37,2013-02-13 15:00:00,
2013-02-13 07:10:00,36.9,32.0,30.30,North,349,0.0,0.0,82,0.00,CLR,,0.00,WeatherDisplay:10.37,2013-02-13 15:10:00,
2013-02-13 07:20:00,36.9,31.9,30.30,North,349,0.0,0.0,82,0.00,CLR,,0.00,WeatherDisplay:10.37,2013-02-13 15:20:00,
2013-02-13 07:30:00,36.9,32.2,30.30,North,349,0.0,0.0,83,0.00,CLR,,0.00,WeatherDisplay:10.37,2013-02-13 15:30:00,
2013-02-13 07:40:00,36.9,32.2,30.30,North,349,0.0,0.0,83,0.00,CLR,,0.00,WeatherDisplay:10.37,2013-02-13 15:40:00,
2013-02-13 07:50:00,37.0,32.4,30.31,North,349,0.0,0.0,83,0.00,CLR,,0.00,WeatherDisplay:10.37,2013-02-13 15:50:00,
2013-02-13 08:00:00,37.2,32.8,30.31,North,349,1.0,5.0,84,0.00,CLR,,0.00,WeatherDisplay:10.37,2013-02-13 16:00:00,
2013-02-13 08:05:00,37.4,33.0,30.31,North,349,0.0,0.0,84,0.00,CLR,,0.00,WeatherDisplay:10.37,2013-02-13 16:05:00,
2013-02-13 08:10:00,37.5,33.1,30.31,North,349,0.0,0.0,84,0.00,CLR,,0.00,WeatherDisplay:10.37,2013-02-13 16:10:00,
2013-02-13 08:20:00,37.9,33.8,30.31,North,349,0.0,0.0,85,0.00,CLR,,0.00,WeatherDisplay:10.37,2013-02-13 16:20:00,
2013-02-13 08:30:00,38.3,34.2,30.31,North,349,0.0,0.0,85,0.00,CLR,,0.00,WeatherDisplay:10.37,2013-02-13 16:30:00,
2013-02-13 08:40:00,38.8,34.7,30.31,North,349,0.0,0.0,85,0.00,CLR,,0.00,WeatherDisplay:10.37,2013-02-13 16:40:00,
2013-02-13 08:50:00,39.3,35.2,30.31,North,349,0.0,0.0,85,0.00,CLR,,0.00,WeatherDisplay:10.37,2013-02-13 16:50:00,
2013-02-13 08:55:00,39.6,35.8,30.31,North,349,0.0,0.0,86,0.00,CLR,,0.00,WeatherDisplay:10.37,2013-02-13 16:55:00,
2013-02-13 09:05:00,40.3,36.4,30.31,North,349,0.0,0.0,86,0.00,CLR,,0.00,WeatherDisplay:10.37,2013-02-13 17:05:00,
2013-02-13 09:10:00,40.7,36.6,30.31,North,349,0.0,0.0,85,0.00,CLR,,0.00,WeatherDisplay:10.37,2013-02-13 17:10:00,
2013-02-13 09:20:00,41.5,37.7,30.32,North,349,0.0,0.0,86,0.00,CLR,,0.00,WeatherDisplay:10.37,2013-02-13 17:20:00,
2013-02-13 09:30:00,42.5,38.9,30.32,WSW,239,0.0,6.0,87,0.00,CLR,,0.00,WeatherDisplay:10.37,2013-02-13 17:30:00,
2013-02-13 09:40:00,43.3,40.0,30.32,SW,215,1.0,6.0,88,0.00,CLR,,0.00,WeatherDisplay:10.37,2013-02-13 17:40:00,
2013-02-13 09:50:00,44.2,40.8,30.32,SW,218,3.0,6.0,88,0.00,CLR,,0.00,WeatherDisplay:10.37,2013-02-13 17:50:00,
2013-02-13 10:00:00,45.0,41.7,30.31,SW,216,1.0,5.0,88,0.00,CLR,,0.00,WeatherDisplay:10.37,2013-02-13 18:00:00,
2013-02-13 10:05:00,45.4,42.4,30.31,SSW,211,2.0,6.0,89,0.00,CLR,,0.00,WeatherDisplay:10.37,2013-02-13 18:05:00,
2013-02-13 10:10:00,45.8,42.7,30.31,SSW,206,1.0,5.0,89,0.00,CLR,,0.00,WeatherDisplay:10.37,2013-02-13 18:10:00,
2013-02-13 10:20:00,46.4,43.0,30.31,SSW,213,1.0,6.0,88,0.00,CLR,,0.00,WeatherDisplay:10.37,2013-02-13 18:20:00,
2013-02-13 10:30:00,47.0,43.7,30.31,SW,214,2.0,7.0,88,0.00,CLR,,0.00,WeatherDisplay:10.37,2013-02-13 18:30:00,
2013-02-13 10:40:00,47.6,43.9,30.31,SSW,211,1.0,5.0,87,0.00,CLR,,0.00,WeatherDisplay:10.37,2013-02-13 18:40:00,
2013-02-13 10:50:00,48.2,44.2,30.30,SW,214,0.0,4.0,86,0.00,CLR,,0.00,WeatherDisplay:10.37,2013-02-13 18:50:00,
2013-02-13 11:00:00,48.8,44.8,30.30,SSW,209,3.0,6.0,86,0.00,CLR,,0.00,WeatherDisplay:10.37,2013-02-13 19:00:00,
2013-02-13 11:05:00,49.1,44.8,30.30,SSW,207,2.0,4.0,85,0.00,CLR,,0.00,WeatherDisplay:10.37,2013-02-13 19:05:00,
2013-02-13 11:10:00,49.3,44.7,30.30,SSW,207,2.0,7.0,84,0.00,CLR,,0.00,WeatherDisplay:10.37,2013-02-13 19:10:00,
2013-02-13 11:20:00,49.9,45.2,30.30,SSW,211,3.0,6.0,84,0.00,CLR,,0.00,WeatherDisplay:10.37,2013-02-13 19:20:00,
2013-02-13 11:30:00,50.5,45.8,30.30,South,190,2.0,8.0,84,0.00,CLR,,0.00,WeatherDisplay:10.37,2013-02-13 19:30:00,
2013-02-13 11:40:00,50.9,45.3,30.29,SW,215,6.0,9.0,81,0.00,CLR,,0.00,WeatherDisplay:10.37,2013-02-13 19:40:00,
2013-02-13 11:50:00,51.3,45.0,30.29,SW,214,3.0,7.0,79,0.00,CLR,,0.00,WeatherDisplay:10.37,2013-02-13 19:50:00,
2013-02-13 12:00:00,51.7,44.7,30.28,SSW,199,5.0,8.0,77,0.00,CLR,,0.00,WeatherDisplay:10.37,2013-02-13 20:00:00,
2013-02-13 12:05:00,51.9,44.6,30.28,SSW,204,0.0,4.0,76,0.00,CLR,,0.00,WeatherDisplay:10.37,2013-02-13 20:05:00,
2013-02-13 12:10:00,52.1,44.8,30.28,SSW,195,3.0,8.0,76,0.00,CLR,,0.00,WeatherDisplay:10.37,2013-02-13 20:10:00,
2013-02-13 12:20:00,52.4,44.0,30.27,SW,220,0.0,5.0,73,0.00,CLR,,0.00,WeatherDisplay:10.37,2013-02-13 20:20:00,
2013-02-13 12:30:00,52.7,44.3,30.27,SW,221,1.0,9.0,73,0.00,CLR,,0.00,WeatherDisplay:10.37,2013-02-13 20:30:00,
2013-02-13 12:40:00,53.1,44.3,30.26,SW,214,5.0,7.0,72,0.00,CLR,,0.00,WeatherDisplay:10.37,2013-02-13 20:40:00,
2013-02-13 12:50:00,53.4,44.6,30.26,SSW,204,2.0,5.0,72,0.00,CLR,,0.00,WeatherDisplay:10.37,2013-02-13 20:50:00,
2013-02-13 13:00:00,53.9,45.1,30.25,South,172,5.0,9.0,72,0.00,CLR,,0.00,WeatherDisplay:10.37,2013-02-13 21:00:00,
2013-02-13 13:05:00,54.1,44.5,30.25,SSW,206,5.0,7.0,70,0.00,CLR,,0.00,WeatherDisplay:10.37,2013-02-13 21:05:00,
2013-02-13 13:10:00,54.2,44.7,30.25,SW,217,5.0,8.0,70,0.00,CLR,,0.00,WeatherDisplay:10.37,2013-02-13 21:10:00,
2013-02-13 13:20:00,54.6,44.6,30.24,SW,216,1.0,7.0,69,0.00,CLR,,0.00,WeatherDisplay:10.37,2013-02-13 21:20:00,
2013-02-13 13:30:00,54.9,44.5,30.24,SW,217,3.0,7.0,68,0.00,CLR,,0.00,WeatherDisplay:10.37,2013-02-13 21:30:00,
2013-02-13 13:40:00,55.2,44.8,30.23,SW,223,2.0,7.0,68,0.00,CLR,,0.00,WeatherDisplay:10.37,2013-02-13 21:40:00,
2013-02-13 13:50:00,55.6,44.8,30.23,SW,222,6.0,9.0,67,0.00,CLR,,0.00,WeatherDisplay:10.37,2013-02-13 21:50:00,
2013-02-13 14:00:00,55.8,43.8,30.23,SW,225,5.0,9.0,64,0.00,CLR,,0.00,WeatherDisplay:10.37,2013-02-13 22:00:00,
2013-02-13 14:05:00,56.0,44.4,30.23,SW,222,5.0,7.0,65,0.00,CLR,,0.00,WeatherDisplay:10.37,2013-02-13 22:05:00,
2013-02-13 14:10:00,56.1,44.9,30.23,SSW,212,1.0,6.0,66,0.00,CLR,,0.00,WeatherDisplay:10.37,2013-02-13 22:10:00,
2013-02-13 14:20:00,56.4,44.4,30.23,SSW,197,2.0,7.0,64,0.00,CLR,,0.00,WeatherDisplay:10.37,2013-02-13 22:20:00,
2013-02-13 14:30:00,56.5,43.6,30.22,SSW,205,1.0,8.0,62,0.00,CLR,,0.00,WeatherDisplay:10.37,2013-02-13 22:30:00,
2013-02-13 14:40:00,56.6,42.9,30.22,SW,218,0.0,8.0,60,0.00,CLR,,0.00,WeatherDisplay:10.37,2013-02-13 22:40:00,
2013-02-13 14:50:00,56.7,43.0,30.22,SSW,211,5.0,7.0,60,0.00,CLR,,0.00,WeatherDisplay:10.37,2013-02-13 22:50:00,
2013-02-13 15:00:00,56.8,43.5,30.21,SSW,195,3.0,6.0,61,0.00,CLR,,0.00,WeatherDisplay:10.37,2013-02-13 23:00:00,
2013-02-13 15:05:00,56.9,42.7,30.21,SSW,205,3.0,6.0,59,0.00,CLR,,0.00,WeatherDisplay:10.37,2013-02-13 23:05:00,
2013-02-13 15:10:00,56.9,42.3,30.21,SSW,208,1.0,5.0,58,0.00,CLR,,0.00,WeatherDisplay:10.37,2013-02-13 23:10:00,
2013-02-13 15:20:00,57.0,43.2,30.21,South,181,0.0,6.0,60,0.00,CLR,,0.00,WeatherDisplay:10.37,2013-02-13 23:20:00,
2013-02-13 15:30:00,57.1,42.4,30.21,SSW,211,1.0,5.0,58,0.00,CLR,,0.00,WeatherDisplay:10.37,2013-02-13 23:30:00,
2013-02-13 15:40:00,57.2,42.5,30.21,SW,230,2.0,4.0,58,0.00,CLR,,0.00,WeatherDisplay:10.37,2013-02-13 23:40:00,
2013-02-13 15:50:00,57.2,42.1,30.21,SW,221,1.0,6.0,57,0.00,CLR,,0.00,WeatherDisplay:10.37,2013-02-13 23:50:00,
2013-02-13 15:55:00,57.3,42.6,30.21,SW,214,0.0,4.0,58,0.00,CLR,,0.00,WeatherDisplay:10.37,2013-02-13 23:55:00,
2013-02-13 16:05:00,57.3,42.6,30.21,SW,214,1.0,4.0,58,0.00,CLR,,0.00,WeatherDisplay:10.37,2013-02-14 00:05:00,
2013-02-13 16:10:00,57.3,42.6,30.21,SW,217,2.0,6.0,58,0.00,CLR,,0.00,WeatherDisplay:10.37,2013-02-14 00:10:00,
2013-02-13 16:20:00,57.3,43.1,30.20,SW,215,2.0,5.0,59,0.00,CLR,,0.00,WeatherDisplay:10.37,2013-02-14 00:20:00,
2013-02-13 16:30:00,57.3,42.7,30.21,SW,214,2.0,4.0,58,0.00,CLR,,0.00,WeatherDisplay:10.37,2013-02-14 00:30:00,
2013-02-13 16:40:00,57.3,43.1,30.20,SW,216,1.0,4.0,59,0.00,CLR,,0.00,WeatherDisplay:10.37,2013-02-14 00:40:00,
2013-02-13 16:50:00,57.2,43.0,30.20,SW,216,0.0,3.0,59,0.00,CLR,,0.00,WeatherDisplay:10.37,2013-02-14 00:50:00,
2013-02-13 17:00:00,57.0,42.8,30.20,SW,215,0.0,1.0,59,0.00,CLR,,0.00,WeatherDisplay:10.37,2013-02-14 01:00:00,
2013-02-13 17:05:00,57.0,43.2,30.20,SW,215,0.0,1.0,60,0.00,CLR,,0.00,WeatherDisplay:10.37,2013-02-14 01:05:00,
2013-02-13 17:10:00,56.8,42.7,30.20,SW,215,0.0,1.0,59,0.00,CLR,,0.00,WeatherDisplay:10.37,2013-02-14 01:10:00,
2013-02-13 17:20:00,56.6,43.3,30.20,SW,215,0.0,2.0,61,0.00,CLR,,0.00,WeatherDisplay:10.37,2013-02-14 01:20:00,
2013-02-13 17:30:00,56.3,42.6,30.20,SSE,165,0.0,4.0,60,0.00,CLR,,0.00,WeatherDisplay:10.37,2013-02-14 01:30:00,
2013-02-13 17:40:00,56.1,42.8,30.20,SSE,148,0.0,6.0,61,0.00,CLR,,0.00,WeatherDisplay:10.37,2013-02-14 01:40:00,
2013-02-13 17:50:00,55.7,42.9,30.20,SE,136,0.0,1.0,62,0.00,CLR,,0.00,WeatherDisplay:10.37,2013-02-14 01:50:00,
2013-02-13 18:00:00,55.4,43.0,30.20,SE,135,0.0,1.0,63,0.00,CLR,,0.00,WeatherDisplay:10.37,2013-02-14 02:00:00,
2013-02-13 18:05:00,55.3,42.9,30.20,SE,135,0.0,0.0,63,0.00,CLR,,0.00,WeatherDisplay:10.37,2013-02-14 02:05:00,
2013-02-13 18:10:00,55.1,42.7,30.20,SE,135,0.0,0.0,63,0.00,CLR,,0.00,WeatherDisplay:10.37,2013-02-14 02:10:00,
2013-02-13 18:20:00,54.6,42.3,30.20,SE,135,0.0,0.0,63,0.00,CLR,,0.00,WeatherDisplay:10.37,2013-02-14 02:20:00,
2013-02-13 18:30:00,54.0,42.1,30.20,SE,135,0.0,0.0,64,0.00,CLR,,0.00,WeatherDisplay:10.37,2013-02-14 02:30:00,
2013-02-13 18:40:00,53.3,41.8,30.20,SE,135,0.0,0.0,65,0.00,CLR,,0.00,WeatherDisplay:10.37,2013-02-14 02:40:00,
2013-02-13 18:50:00,52.5,41.5,30.21,SE,135,0.0,0.0,66,0.00,CLR,,0.00,WeatherDisplay:10.37,2013-02-14 02:50:00,
2013-02-13 19:00:00,51.9,41.3,30.21,SE,135,0.0,0.0,67,0.00,CLR,,0.00,WeatherDisplay:10.37,2013-02-14 03:00:00,
2013-02-13 19:05:00,51.6,41.0,30.21,SE,135,0.0,0.0,67,0.00,CLR,,0.00,WeatherDisplay:10.37,2013-02-14 03:05:00,
2013-02-13 19:10:00,51.2,41.0,30.21,SE,135,0.0,0.0,68,0.00,CLR,,0.00,WeatherDisplay:10.37,2013-02-14 03:10:00,
2013-02-13 19:20:00,50.6,40.8,30.21,ESE,112,0.0,0.0,69,0.00,CLR,,0.00,WeatherDisplay:10.37,2013-02-14 03:20:00,
2013-02-13 19:30:00,50.0,40.2,30.21,ESE,102,0.0,0.0,69,0.00,CLR,,0.00,WeatherDisplay:10.37,2013-02-14 03:30:00,
2013-02-13 19:40:00,49.5,40.1,30.21,ESE,102,0.0,0.0,70,0.00,CLR,,0.00,WeatherDisplay:10.37,2013-02-14 03:40:00,
2013-02-13 19:50:00,49.0,40.0,30.21,ESE,102,0.0,0.0,71,0.00,CLR,,0.00,WeatherDisplay:10.37,2013-02-14 03:50:00,
2013-02-13 20:00:00,48.5,39.5,30.21,East,96,0.0,0.0,71,0.00,CLR,,0.00,WeatherDisplay:10.37,2013-02-14 04:00:00,
2013-02-13 20:10:00,48.0,39.4,30.21,East,94,0.0,0.0,72,0.00,CLR,,0.00,WeatherDisplay:10.37,2013-02-14 04:10:00,
2013-02-13 20:20:00,47.5,39.3,30.21,East,94,0.0,0.0,73,0.00,CLR,,0.00,WeatherDisplay:10.37,2013-02-14 04:20:00,
2013-02-13 20:30:00,47.1,38.9,30.21,East,94,0.0,0.0,73,0.00,CLR,,0.00,WeatherDisplay:10.37,2013-02-14 04:30:00,
2013-02-13 20:40:00,46.7,38.9,30.21,East,94,0.0,0.0,74,0.00,CLR,,0.00,WeatherDisplay:10.37,2013-02-14 04:40:00,
2013-02-13 20:50:00,46.4,38.6,30.21,East,94,0.0,0.0,74,0.00,CLR,,0.00,WeatherDisplay:10.37,2013-02-14 04:50:00,
2013-02-13 21:00:00,46.1,38.2,30.22,East,94,0.0,0.0,74,0.00,CLR,,0.00,WeatherDisplay:10.37,2013-02-14 05:00:00,
2013-02-13 21:05:00,45.9,38.1,30.22,East,94,0.0,0.0,74,0.00,CLR,,0.00,WeatherDisplay:10.37,2013-02-14 05:05:00,
2013-02-13 21:10:00,45.7,38.2,30.22,East,94,0.0,0.0,75,0.00,CLR,,0.00,WeatherDisplay:10.37,2013-02-14 05:10:00,
2013-02-13 21:15:00,45.5,38.1,30.22,East,94,0.0,0.0,75,0.00,CLR,,0.00,WeatherDisplay:10.37,2013-02-14 05:15:00,
2013-02-13 21:20:00,45.4,37.9,30.22,East,94,0.0,0.0,75,0.00,CLR,,0.00,WeatherDisplay:10.37,2013-02-14 05:20:00,
2013-02-13 21:30:00,45.2,37.7,30.22,East,94,0.0,0.0,75,0.00,CLR,,0.00,WeatherDisplay:10.37,2013-02-14 05:30:00,
2013-02-13 21:40:00,44.9,37.4,30.22,East,94,0.0,0.0,75,0.00,CLR,,0.00,WeatherDisplay:10.37,2013-02-14 05:40:00,
2013-02-13 21:50:00,44.5,37.5,30.22,East,94,0.0,0.0,76,0.00,CLR,,0.00,WeatherDisplay:10.37,2013-02-14 05:50:00,
2013-02-13 22:00:00,44.2,37.5,30.22,East,93,0.0,0.0,77,0.00,CLR,,0.00,WeatherDisplay:10.37,2013-02-14 06:00:00,
2013-02-13 22:05:00,44.1,37.3,30.22,East,93,0.0,0.0,77,0.00,CLR,,0.00,WeatherDisplay:10.37,2013-02-14 06:05:00,
2013-02-13 22:10:00,44.1,37.6,30.22,East,93,0.0,0.0,78,0.00,CLR,,0.00,WeatherDisplay:10.37,2013-02-14 06:10:00,
2013-02-13 22:20:00,44.0,37.6,30.22,East,93,0.0,0.0,78,0.00,CLR,,0.00,WeatherDisplay:10.37,2013-02-14 06:20:00,
2013-02-13 22:30:00,43.9,37.5,30.22,East,92,0.0,0.0,78,0.00,CLR,,0.00,WeatherDisplay:10.37,2013-02-14 06:30:00,
2013-02-13 22:40:00,43.7,37.0,30.22,East,91,0.0,0.0,77,0.00,CLR,,0.00,WeatherDisplay:10.37,2013-02-14 06:40:00,
2013-02-13 22:50:00,43.4,36.7,30.22,East,91,0.0,0.0,77,0.00,CLR,,0.00,WeatherDisplay:10.37,2013-02-14 06:50:00,
2013-02-13 23:00:00,43.2,36.5,30.22,East,91,0.0,0.0,77,0.00,CLR,,0.00,WeatherDisplay:10.37,2013-02-14 07:00:00,
2013-02-13 23:05:00,43.1,36.3,30.22,East,91,0.0,0.0,77,0.00,CLR,,0.00,WeatherDisplay:10.37,2013-02-14 07:05:00,
2013-02-13 23:10:00,42.9,36.2,30.22,East,91,0.0,0.0,77,0.00,CLR,,0.00,WeatherDisplay:10.37,2013-02-14 07:10:00,
2013-02-13 23:15:00,42.8,36.4,30.22,East,90,0.0,0.0,78,0.00,CLR,,0.00,WeatherDisplay:10.37,2013-02-14 07:15:00,
2013-02-13 23:20:00,42.6,36.2,30.21,East,89,0.0,1.0,78,0.00,CLR,,0.00,WeatherDisplay:10.37,2013-02-14 07:20:00,
2013-02-13 23:25:00,42.5,36.1,30.21,East,88,0.0,0.0,78,0.00,CLR,,0.00,WeatherDisplay:10.37,2013-02-14 07:25:00,
2013-02-13 23:30:00,42.4,36.0,30.21,East,88,0.0,0.0,78,0.00,CLR,,0.00,WeatherDisplay:10.37,2013-02-14 07:30:00,
2013-02-13 23:40:00,42.2,35.8,30.21,East,88,0.0,0.0,78,0.00,CLR,,0.00,WeatherDisplay:10.37,2013-02-14 07:40:00,
2013-02-13 23:50:00,41.9,35.9,30.21,East,87,0.0,0.0,79,0.00,CLR,,0.00,WeatherDisplay:10.37,2013-02-14 07:50:00,